Ray City, Georgia
Current Conditions -  °F | °C
As of 2:58 PM on Thursday 18 Dec 2014 (Local Time) from KVAD Reporting Station
Broken Clouds Broken Clouds  
Wind Chill: 62°   Ceiling: 21000
Heat Index: 62°   Visibility: 10mi
Dew Point: 35°   Wind: 5mph
Humidity: 38%   Direction: NA
Pressure: 30.11"   Gusts: NA
Location:  31.07°N, 83.2°W
Report Text: KVAD 181958Z AUTO VRB04KT 10SM BKN210 16/02 A3011 RMK AO2 SLP199 T01640019 $
Loading
Personal Weather Stations






























Interactive Weather Map New forecast layout! Learn more

10-Day Weather Forecast

Advertisements
Track Severe Weather on mobile